Accueil
METAR-TAF:

METAR-TAF

Aéroports :

Aéroport de Nuuk

Nuuk, Groenland

latitude: 64-10N, longitude: 051-45W, altitude: 80 m

Observation

Le bulletin a été fait il y a 1 heure et 0 minutes, à 08:50 UTC
Vent 5 kt de sud
Température 9°C
Humidité 71%
Pression 1020 hPa
Visibilité 10 km ou plus
Quelques nuages à une hauteur de 20000 ft

METAR: BGGH 160850Z 19005KT 9999 FEW200 09/04 Q1020

Heure: 07:50 (09:50 UTC)

Prévision

Le bulletin a été fait il y a 1 heure et 33 minutes, à 08:17 UTC
Prévision valable du 16 à 09 UTC au 16 à 18 UTC
Vent 10 kt de sud
Visibilité 10 km ou plus
Quelques nuages à une hauteur de 200 ft
Evoluant progressivement
du 16 à 17 UTC au 16 à 18 UTC
Vent 10 kt de ouest

TAF: BGGH 160817Z 1609/1618 19010KT 9999 FEW002 BECMG 1617/1618 27010KT

Observations et prévisions météorologiques de plus de 4000 aéroports (messages METAR et TAF).

Les stations disponibles sont représentées par des disques jaunes et rouges sur la carte.

Passer la souris dessus pour voir le nom de la station.

Cliquer dessus pour voir les observations et prévisions météorologiques.

Pour changer de carte: cliquez sur les boutons verts avec une croix noire pour zoomer, sur le bouton vert avec un tiret pour effectuer un zoom arrière, ou sur les flèches vertes pour les cartes adjacentes.


METAR-TAF: